createdAt,value
2023-04-30T00:01:55.951Z,16.20
2023-04-30T00:04:22.410Z,16.20
2023-04-30T00:06:48.848Z,16.14
2023-04-30T00:09:15.177Z,16.12
2023-04-30T00:11:41.550Z,16.10
2023-04-30T00:14:07.890Z,16.18
2023-04-30T00:16:34.334Z,16.17
2023-04-30T00:19:00.836Z,16.21
2023-04-30T00:21:27.734Z,16.19
2023-04-30T00:23:54.112Z,16.12
2023-04-30T00:26:20.552Z,16.11
2023-04-30T00:28:46.954Z,16.17
2023-04-30T00:31:13.288Z,16.14
2023-04-30T00:33:39.592Z,16.18
2023-04-30T00:36:06.462Z,16.16
2023-04-30T00:38:32.827Z,16.14
2023-04-30T00:40:59.431Z,16.10
2023-04-30T00:43:26.667Z,16.08
2023-04-30T00:45:53.332Z,16.08
2023-04-30T00:48:19.878Z,16.11
2023-04-30T00:50:46.261Z,16.08
2023-04-30T00:53:12.713Z,16.06
2023-04-30T00:55:41.099Z,16.07
2023-04-30T00:58:07.988Z,16.11
2023-04-30T01:00:34.542Z,16.11
2023-04-30T01:03:01.526Z,16.11
2023-04-30T01:05:27.999Z,16.14
2023-04-30T01:07:56.248Z,16.10
2023-04-30T01:10:32.302Z,16.06
2023-04-30T01:13:21.001Z,16.06
2023-04-30T01:16:10.331Z,16.05
2023-04-30T01:18:44.115Z,16.06
2023-04-30T01:21:12.318Z,15.99
2023-04-30T01:23:42.551Z,15.92
2023-04-30T01:26:15.599Z,15.93
2023-04-30T01:28:44.373Z,15.97
2023-04-30T01:31:14.815Z,16.01
2023-04-30T01:33:41.235Z,16.04
2023-04-30T01:36:20.421Z,16.03
2023-04-30T01:38:56.189Z,16.03
2023-04-30T01:41:47.215Z,15.96
2023-04-30T01:44:47.979Z,15.98
2023-04-30T01:47:24.486Z,15.98
2023-04-30T01:50:00.626Z,15.99
2023-04-30T01:52:58.946Z,15.93
2023-04-30T01:55:43.218Z,15.92
2023-04-30T01:58:12.846Z,15.89
2023-04-30T02:00:39.223Z,15.79
2023-04-30T02:03:05.839Z,15.81
2023-04-30T02:05:32.381Z,15.77
2023-04-30T02:07:58.954Z,15.76
2023-04-30T02:10:27.148Z,15.78
2023-04-30T02:12:53.990Z,15.77
2023-04-30T02:15:20.782Z,15.76
2023-04-30T02:17:47.252Z,15.73
2023-04-30T02:20:13.728Z,15.76
2023-04-30T02:22:40.246Z,15.77
2023-04-30T02:25:06.930Z,15.79
2023-04-30T02:27:33.675Z,15.76
2023-04-30T02:30:00.485Z,15.69
2023-04-30T02:32:26.961Z,15.70
2023-04-30T02:34:53.455Z,15.71
2023-04-30T02:37:19.951Z,15.75
2023-04-30T02:39:46.507Z,15.73
2023-04-30T02:42:12.904Z,15.70
2023-04-30T02:44:39.263Z,15.76
2023-04-30T02:47:05.687Z,15.81
2023-04-30T02:49:32.261Z,15.72
2023-04-30T02:51:58.632Z,15.65
2023-04-30T02:54:25.083Z,15.63
2023-04-30T02:56:51.502Z,15.61
2023-04-30T02:59:17.864Z,15.65
2023-04-30T03:01:44.304Z,15.68
2023-04-30T03:04:10.916Z,15.65
2023-04-30T03:06:37.470Z,15.65
2023-04-30T03:09:03.900Z,15.66
2023-04-30T03:11:30.302Z,15.68
2023-04-30T03:13:56.629Z,15.62
2023-04-30T03:16:23.056Z,15.65
2023-04-30T03:18:49.699Z,15.61
2023-04-30T03:21:16.148Z,15.57
2023-04-30T03:23:42.689Z,15.58
2023-04-30T03:26:09.042Z,15.54
2023-04-30T03:28:35.917Z,15.42
2023-04-30T03:31:05.300Z,15.44
2023-04-30T03:33:32.780Z,15.41
2023-04-30T03:35:59.378Z,15.43
2023-04-30T03:38:26.042Z,15.43
2023-04-30T03:40:52.487Z,15.39
2023-04-30T03:43:18.820Z,15.38
2023-04-30T03:45:45.726Z,15.39
2023-04-30T03:48:12.467Z,15.44
2023-04-30T03:50:38.841Z,15.41
2023-04-30T03:53:05.237Z,15.39
2023-04-30T03:55:31.813Z,15.39
2023-04-30T03:57:58.346Z,15.42
2023-04-30T04:00:24.773Z,15.45
2023-04-30T04:02:51.190Z,15.42
2023-04-30T04:05:17.651Z,15.44
2023-04-30T04:07:43.983Z,15.42
2023-04-30T04:10:10.904Z,15.40
2023-04-30T04:12:37.285Z,15.36
2023-04-30T04:15:04.448Z,15.31
2023-04-30T04:17:31.198Z,15.32
2023-04-30T04:19:57.672Z,15.29
2023-04-30T04:22:24.066Z,15.38
2023-04-30T04:24:51.324Z,15.41
2023-04-30T04:27:17.707Z,15.41
2023-04-30T04:29:44.379Z,15.40
2023-04-30T04:32:11.737Z,15.40
2023-04-30T04:34:38.696Z,15.44
2023-04-30T04:37:05.113Z,15.43
2023-04-30T04:39:31.457Z,15.43
2023-04-30T04:41:58.235Z,15.47
2023-04-30T04:44:24.682Z,15.47
2023-04-30T04:46:53.839Z,15.44
2023-04-30T04:49:20.806Z,15.42
2023-04-30T04:51:47.199Z,15.41
2023-04-30T04:54:13.525Z,15.43
2023-04-30T04:56:39.953Z,15.47
2023-04-30T04:59:06.305Z,15.47
2023-04-30T05:01:32.658Z,15.45
2023-04-30T05:03:59.138Z,15.40
2023-04-30T05:06:25.790Z,15.38
2023-04-30T05:08:52.125Z,15.38
2023-04-30T05:11:18.450Z,15.40
2023-04-30T05:13:44.820Z,15.39
2023-04-30T05:16:11.237Z,15.35
2023-04-30T05:18:37.582Z,15.24
2023-04-30T05:21:04.407Z,15.33
2023-04-30T05:23:30.776Z,15.39
2023-04-30T05:25:57.198Z,15.38
2023-04-30T05:28:23.552Z,15.36
2023-04-30T05:30:49.885Z,15.31
2023-04-30T05:33:16.713Z,15.31
2023-04-30T05:35:43.026Z,15.27
2023-04-30T05:38:09.374Z,15.32
2023-04-30T05:40:35.708Z,15.32
2023-04-30T05:43:02.069Z,15.36
2023-04-30T05:45:28.438Z,15.34
2023-04-30T05:47:54.820Z,15.38
2023-04-30T05:50:21.231Z,15.43
2023-04-30T05:52:47.551Z,15.48
2023-04-30T05:55:13.914Z,15.46
2023-04-30T05:57:40.290Z,15.51
2023-04-30T06:00:07.366Z,15.49
2023-04-30T06:02:33.845Z,15.47
2023-04-30T06:05:01.917Z,15.44
2023-04-30T06:07:28.317Z,15.46
2023-04-30T06:09:54.838Z,15.49
2023-04-30T06:12:21.336Z,15.56
2023-04-30T06:14:47.711Z,15.60
2023-04-30T06:17:14.186Z,15.64
2023-04-30T06:19:40.622Z,15.69
2023-04-30T06:22:07.000Z,15.68
2023-04-30T06:24:33.356Z,15.73
2023-04-30T06:26:59.775Z,15.68
2023-04-30T06:29:26.098Z,15.72
2023-04-30T06:31:52.597Z,15.80
2023-04-30T06:34:20.562Z,15.84
2023-04-30T06:36:47.117Z,15.89
2023-04-30T06:39:17.025Z,15.94
2023-04-30T06:41:43.631Z,15.96
2023-04-30T06:44:10.180Z,15.99
2023-04-30T06:46:36.671Z,16.01
2023-04-30T06:49:03.749Z,15.98
2023-04-30T06:51:30.080Z,15.95
2023-04-30T06:53:56.557Z,15.98
2023-04-30T06:56:23.075Z,15.93
2023-04-30T06:58:50.283Z,15.96
2023-04-30T07:01:17.450Z,15.92
2023-04-30T07:03:44.090Z,15.97
2023-04-30T07:06:10.918Z,15.93
2023-04-30T07:08:37.340Z,15.88
2023-04-30T07:11:03.948Z,15.89
2023-04-30T07:13:30.322Z,15.93
2023-04-30T07:15:56.811Z,15.90
2023-04-30T07:18:23.241Z,15.97
2023-04-30T07:20:49.818Z,15.94
2023-04-30T07:23:16.174Z,15.91
2023-04-30T07:25:42.549Z,15.89
2023-04-30T07:28:08.963Z,15.91
2023-04-30T07:30:35.669Z,15.98
2023-04-30T07:33:02.151Z,16.02
2023-04-30T07:35:28.565Z,16.05
2023-04-30T07:37:54.929Z,16.08
2023-04-30T07:40:28.899Z,16.08
2023-04-30T07:43:01.654Z,16.11
2023-04-30T07:45:28.011Z,16.16
2023-04-30T07:47:54.430Z,16.18
2023-04-30T07:50:20.865Z,16.14
2023-04-30T07:52:49.423Z,16.16
2023-04-30T07:55:15.848Z,16.21
2023-04-30T07:57:42.220Z,16.24
2023-04-30T08:00:08.906Z,16.25
2023-04-30T08:02:35.471Z,16.27
2023-04-30T08:05:01.945Z,16.28
2023-04-30T08:07:28.453Z,16.33
2023-04-30T08:09:55.059Z,16.27
2023-04-30T08:12:21.531Z,16.31
2023-04-30T08:14:47.847Z,16.27
2023-04-30T08:17:14.229Z,16.28
2023-04-30T08:19:40.557Z,16.29
2023-04-30T08:22:07.034Z,16.29
2023-04-30T08:24:33.391Z,16.31
2023-04-30T08:27:03.953Z,16.32
2023-04-30T08:29:30.381Z,16.37
2023-04-30T08:32:02.465Z,16.42
2023-04-30T08:34:28.832Z,16.50
2023-04-30T08:36:55.517Z,16.51
2023-04-30T08:39:21.876Z,16.57
2023-04-30T08:41:56.020Z,16.64
2023-04-30T08:44:23.359Z,16.61
2023-04-30T08:46:54.098Z,16.63
2023-04-30T08:49:25.158Z,16.67
2023-04-30T08:51:52.367Z,16.70
2023-04-30T08:54:19.092Z,16.69
2023-04-30T08:56:46.231Z,16.70
2023-04-30T08:59:13.414Z,16.70
2023-04-30T09:01:39.998Z,16.72
2023-04-30T09:04:06.571Z,16.77
2023-04-30T09:06:32.963Z,16.77
2023-04-30T09:09:09.190Z,16.78
2023-04-30T09:11:35.535Z,16.80
2023-04-30T09:14:02.457Z,16.82
2023-04-30T09:16:43.953Z,16.87
2023-04-30T09:19:22.795Z,16.83
2023-04-30T09:21:49.156Z,16.86
2023-04-30T09:24:18.736Z,16.83
2023-04-30T09:26:47.214Z,16.80
2023-04-30T09:29:14.383Z,16.80
2023-04-30T09:31:44.983Z,16.79
2023-04-30T09:34:11.826Z,16.80
2023-04-30T09:36:52.378Z,16.84
2023-04-30T09:39:18.843Z,16.85
2023-04-30T09:41:45.226Z,16.85
2023-04-30T09:44:32.019Z,16.92
2023-04-30T09:46:59.171Z,16.95
2023-04-30T09:49:27.144Z,16.95
2023-04-30T09:52:02.657Z,17.05
2023-04-30T09:54:30.862Z,17.13
2023-04-30T09:56:59.056Z,17.22
2023-04-30T09:59:35.152Z,17.24
2023-04-30T10:02:04.286Z,17.27
2023-04-30T10:04:39.085Z,17.30
2023-04-30T10:07:14.829Z,17.27
2023-04-30T10:09:49.486Z,17.34
2023-04-30T10:12:22.198Z,17.40
2023-04-30T10:14:55.264Z,17.45
2023-04-30T10:17:23.052Z,17.51
2023-04-30T10:19:52.342Z,17.56
2023-04-30T10:22:19.784Z,17.66
2023-04-30T10:24:48.491Z,17.69
2023-04-30T10:27:15.146Z,17.82
2023-04-30T10:29:42.686Z,17.93
2023-04-30T10:32:13.269Z,17.99
2023-04-30T10:34:59.113Z,18.06
2023-04-30T10:37:38.624Z,18.07
2023-04-30T10:40:05.991Z,18.08
2023-04-30T10:42:35.253Z,18.20
2023-04-30T10:45:05.121Z,18.18
2023-04-30T10:47:31.726Z,18.17
2023-04-30T10:50:03.900Z,18.23
2023-04-30T10:52:30.609Z,18.22
2023-04-30T10:54:57.122Z,18.26
2023-04-30T10:57:23.505Z,18.22
2023-04-30T11:00:16.865Z,18.17
2023-04-30T11:02:45.678Z,18.18
2023-04-30T11:05:17.983Z,18.14
2023-04-30T11:07:56.056Z,18.09
2023-04-30T11:10:24.276Z,18.08
2023-04-30T11:12:53.427Z,18.15
2023-04-30T11:15:27.920Z,18.15
2023-04-30T11:18:01.378Z,18.17
2023-04-30T11:20:27.836Z,18.17
2023-04-30T11:23:19.623Z,18.20
2023-04-30T11:26:01.144Z,18.14
2023-04-30T11:28:28.205Z,18.17
2023-04-30T11:30:59.704Z,18.06
2023-04-30T11:33:28.236Z,18.07
2023-04-30T11:35:59.278Z,17.97
2023-04-30T11:38:31.074Z,17.82
2023-04-30T11:40:58.215Z,17.78
2023-04-30T11:43:26.255Z,17.76
2023-04-30T11:46:10.098Z,17.83
2023-04-30T11:48:40.559Z,17.89
2023-04-30T11:51:26.830Z,17.88
2023-04-30T11:53:53.675Z,17.88
2023-04-30T11:56:21.226Z,17.81
2023-04-30T11:58:49.229Z,17.76
2023-04-30T12:01:16.313Z,17.85
2023-04-30T12:03:49.124Z,17.84
2023-04-30T12:06:24.494Z,17.73
2023-04-30T12:08:55.192Z,17.74
2023-04-30T12:11:31.919Z,17.72
2023-04-30T12:14:03.395Z,17.66
2023-04-30T12:17:02.243Z,17.65
2023-04-30T12:19:28.623Z,17.69
2023-04-30T12:21:55.245Z,17.66
2023-04-30T12:24:23.485Z,17.61
2023-04-30T12:26:53.310Z,17.58
2023-04-30T12:29:19.857Z,17.60
2023-04-30T12:31:50.806Z,17.60
2023-04-30T12:34:18.399Z,17.55
2023-04-30T12:36:45.250Z,17.57
2023-04-30T12:39:13.207Z,17.58
2023-04-30T12:41:47.834Z,17.60
2023-04-30T12:44:27.973Z,17.57
2023-04-30T12:46:57.161Z,17.57
2023-04-30T12:49:25.633Z,17.57
2023-04-30T12:51:52.303Z,17.53
2023-04-30T12:54:26.616Z,17.45
2023-04-30T12:57:03.474Z,17.41
2023-04-30T12:59:35.796Z,17.44
2023-04-30T13:02:10.864Z,17.40
2023-04-30T13:04:37.663Z,17.36
2023-04-30T13:07:04.621Z,17.44
2023-04-30T13:09:35.452Z,17.55
2023-04-30T13:12:02.181Z,17.60
2023-04-30T13:14:29.006Z,17.51
2023-04-30T13:16:55.519Z,17.47
2023-04-30T13:19:21.966Z,17.50
2023-04-30T13:21:48.342Z,17.42
2023-04-30T13:24:14.681Z,17.42
2023-04-30T13:26:41.172Z,17.38
2023-04-30T13:29:07.569Z,17.36
2023-04-30T13:31:34.052Z,17.31
2023-04-30T13:34:00.824Z,17.29
2023-04-30T13:36:27.195Z,17.13
2023-04-30T13:38:53.783Z,17.06
2023-04-30T13:41:22.137Z,17.03
2023-04-30T13:43:49.571Z,17.10
2023-04-30T13:46:16.494Z,17.15
2023-04-30T13:48:43.141Z,17.12
2023-04-30T13:51:09.547Z,17.02
2023-04-30T13:53:37.160Z,17.01
2023-04-30T13:56:03.661Z,16.91
2023-04-30T13:58:30.074Z,16.86
2023-04-30T14:00:56.467Z,16.77
2023-04-30T14:03:23.133Z,16.70
2023-04-30T14:05:49.925Z,16.63
2023-04-30T14:08:16.477Z,16.58
2023-04-30T14:10:42.937Z,16.56
2023-04-30T14:13:09.337Z,16.48
2023-04-30T14:15:35.922Z,16.44
2023-04-30T14:18:02.399Z,16.33
2023-04-30T14:20:28.774Z,16.27
2023-04-30T14:22:55.130Z,16.32
2023-04-30T14:25:21.617Z,16.26
2023-04-30T14:27:47.991Z,16.19
2023-04-30T14:30:14.388Z,16.13
2023-04-30T14:32:40.863Z,16.11
2023-04-30T14:35:07.894Z,16.11
2023-04-30T14:37:34.270Z,16.11
2023-04-30T14:40:01.863Z,16.12
2023-04-30T14:42:28.360Z,16.13
2023-04-30T14:44:54.821Z,16.04
2023-04-30T14:47:22.421Z,16.09
2023-04-30T14:49:51.931Z,16.08
2023-04-30T14:52:18.438Z,16.06
2023-04-30T14:54:45.066Z,15.99
2023-04-30T14:57:11.556Z,15.96
2023-04-30T14:59:39.952Z,15.96
2023-04-30T15:02:07.545Z,15.70
2023-04-30T15:04:33.985Z,15.78
2023-04-30T15:07:00.749Z,15.72
2023-04-30T15:09:27.632Z,15.72
2023-04-30T15:11:54.104Z,15.75
2023-04-30T15:14:20.475Z,15.76
2023-04-30T15:16:47.039Z,15.72
2023-04-30T15:19:13.419Z,15.61
2023-04-30T15:21:40.625Z,15.63
2023-04-30T15:24:07.133Z,15.58
2023-04-30T15:26:33.522Z,15.48
2023-04-30T15:29:00.781Z,15.41
2023-04-30T15:31:27.891Z,15.39
2023-04-30T15:33:54.762Z,15.29
2023-04-30T15:36:23.528Z,15.28
2023-04-30T15:38:50.617Z,15.32
2023-04-30T15:41:17.507Z,15.29
2023-04-30T15:43:44.461Z,15.12
2023-04-30T15:46:11.672Z,15.02
2023-04-30T15:48:38.787Z,15.00
2023-04-30T15:51:05.778Z,15.06
2023-04-30T15:53:32.709Z,15.05
2023-04-30T15:55:59.666Z,14.97
2023-04-30T15:58:26.651Z,15.00
2023-04-30T16:00:53.995Z,15.01
2023-04-30T16:03:21.349Z,14.98
2023-04-30T16:05:48.379Z,14.97
2023-04-30T16:08:15.331Z,14.95
2023-04-30T16:10:42.419Z,14.95
2023-04-30T16:13:09.342Z,14.75
2023-04-30T16:15:36.153Z,14.66
2023-04-30T16:18:03.247Z,14.66
2023-04-30T16:20:32.300Z,14.69
2023-04-30T16:22:59.524Z,14.67
2023-04-30T16:25:26.577Z,14.58
2023-04-30T16:27:52.896Z,14.56
2023-04-30T16:30:19.371Z,14.72
2023-04-30T16:32:45.795Z,14.67
2023-04-30T16:35:12.256Z,14.64
2023-04-30T16:37:38.612Z,14.72
2023-04-30T16:40:07.418Z,14.77
2023-04-30T16:42:34.309Z,14.75
2023-04-30T16:45:01.514Z,14.70
2023-04-30T16:47:27.892Z,14.70
2023-04-30T16:49:55.938Z,14.69
2023-04-30T16:52:23.063Z,14.53
2023-04-30T16:54:49.659Z,14.55
2023-04-30T16:57:15.987Z,14.61
2023-04-30T16:59:42.330Z,14.66
2023-04-30T17:02:08.789Z,14.58
2023-04-30T17:04:35.861Z,14.55
2023-04-30T17:07:03.051Z,14.53
2023-04-30T17:09:29.792Z,14.54
2023-04-30T17:11:56.188Z,14.58
2023-04-30T17:14:22.894Z,14.60
2023-04-30T17:16:49.260Z,14.61
2023-04-30T17:19:15.691Z,14.61
2023-04-30T17:21:42.059Z,14.61
2023-04-30T17:24:08.453Z,14.57
2023-04-30T17:26:34.833Z,14.55
2023-04-30T17:29:01.314Z,14.45
2023-04-30T17:31:30.691Z,14.41
2023-04-30T17:33:57.078Z,14.35
2023-04-30T17:36:24.609Z,14.28
2023-04-30T17:38:50.956Z,14.30
2023-04-30T17:41:18.462Z,14.31
2023-04-30T17:43:44.889Z,14.31
2023-04-30T17:46:11.738Z,14.28
2023-04-30T17:48:38.230Z,14.29
2023-04-30T17:51:04.912Z,14.33
2023-04-30T17:53:31.271Z,14.38
2023-04-30T17:55:59.337Z,14.42
2023-04-30T17:58:26.397Z,14.37
2023-04-30T18:00:54.290Z,14.38
2023-04-30T18:03:20.785Z,14.39
2023-04-30T18:05:47.323Z,14.42
2023-04-30T18:08:13.738Z,14.40
2023-04-30T18:10:40.078Z,14.38
2023-04-30T18:13:06.854Z,14.26
2023-04-30T18:15:33.239Z,14.37
2023-04-30T18:17:59.650Z,14.31
2023-04-30T18:20:26.418Z,14.30
2023-04-30T18:22:52.767Z,14.27
2023-04-30T18:25:19.231Z,14.22
2023-04-30T18:27:45.680Z,14.18
2023-04-30T18:30:12.731Z,14.08
2023-04-30T18:32:39.313Z,14.16
2023-04-30T18:35:06.112Z,14.13
2023-04-30T18:37:32.829Z,14.18
2023-04-30T18:40:00.378Z,14.10
2023-04-30T18:42:26.809Z,14.11
2023-04-30T18:44:53.212Z,14.15
2023-04-30T18:47:19.571Z,14.20
2023-04-30T18:49:46.141Z,14.23
2023-04-30T18:52:12.514Z,14.16
2023-04-30T18:54:38.858Z,14.18
2023-04-30T18:57:05.751Z,14.20
2023-04-30T18:59:32.245Z,14.21
2023-04-30T19:01:58.667Z,14.20
2023-04-30T19:04:25.201Z,14.16
2023-04-30T19:06:52.831Z,14.15
2023-04-30T19:09:19.509Z,14.14
2023-04-30T19:11:46.065Z,14.08
2023-04-30T19:14:13.284Z,14.03
2023-04-30T19:16:39.880Z,14.09
2023-04-30T19:19:06.572Z,14.04
2023-04-30T19:21:34.767Z,14.06
2023-04-30T19:24:01.160Z,14.09
2023-04-30T19:26:27.847Z,14.09
2023-04-30T19:28:54.328Z,13.95
2023-04-30T19:31:22.288Z,14.02
2023-04-30T19:33:48.701Z,14.07
2023-04-30T19:36:15.339Z,14.08
2023-04-30T19:38:41.681Z,14.12
2023-04-30T19:41:08.059Z,14.08
2023-04-30T19:43:34.453Z,14.10
2023-04-30T19:46:02.288Z,14.07
2023-04-30T19:48:28.828Z,14.06
2023-04-30T19:50:55.636Z,14.06
2023-04-30T19:53:22.337Z,14.05
2023-04-30T19:55:48.811Z,14.03
2023-04-30T19:58:15.338Z,13.99
2023-04-30T20:00:44.941Z,13.92
2023-04-30T20:03:12.940Z,13.90
2023-04-30T20:05:39.795Z,13.70
2023-04-30T20:08:07.724Z,13.68
2023-04-30T20:10:36.244Z,13.75
2023-04-30T20:13:04.206Z,13.68
2023-04-30T20:15:30.848Z,13.75
2023-04-30T20:17:58.291Z,13.75
2023-04-30T20:20:24.875Z,13.71
2023-04-30T20:22:53.985Z,13.75
2023-04-30T20:25:22.255Z,13.76
2023-04-30T20:27:48.998Z,13.71
2023-04-30T20:30:15.520Z,13.69
2023-04-30T20:32:42.193Z,13.74
2023-04-30T20:35:09.199Z,13.81
2023-04-30T20:37:36.662Z,13.83
2023-04-30T20:40:03.929Z,13.82
2023-04-30T20:42:30.607Z,13.77
2023-04-30T20:44:57.016Z,13.73
2023-04-30T20:47:23.872Z,13.66
2023-04-30T20:49:51.132Z,13.66
2023-04-30T20:52:18.740Z,13.60
2023-04-30T20:54:45.586Z,13.66
2023-04-30T20:57:12.045Z,13.81
2023-04-30T20:59:38.549Z,13.84
2023-04-30T21:02:04.974Z,13.88
2023-04-30T21:04:32.139Z,13.92
2023-04-30T21:06:58.918Z,13.84
2023-04-30T21:09:25.458Z,13.82
2023-04-30T21:11:52.049Z,13.77
2023-04-30T21:14:18.572Z,13.89
2023-04-30T21:16:45.096Z,13.96
2023-04-30T21:19:11.583Z,13.95
2023-04-30T21:21:37.937Z,13.95
2023-04-30T21:24:05.096Z,13.82
2023-04-30T21:26:31.717Z,13.77
2023-04-30T21:28:58.138Z,13.76
2023-04-30T21:31:24.709Z,13.75
2023-04-30T21:33:51.231Z,13.67
2023-04-30T21:36:18.014Z,13.61
2023-04-30T21:38:44.425Z,13.56
2023-04-30T21:41:15.286Z,13.53
2023-04-30T21:43:42.455Z,13.49
2023-04-30T21:46:09.777Z,13.46
2023-04-30T21:48:38.292Z,13.45
2023-04-30T21:51:16.938Z,13.44
2023-04-30T21:53:44.568Z,13.53
2023-04-30T21:56:11.471Z,13.53
2023-04-30T21:58:38.812Z,13.51
2023-04-30T22:01:10.040Z,13.49
2023-04-30T22:03:36.596Z,13.46
2023-04-30T22:06:03.406Z,13.63
2023-04-30T22:08:29.882Z,13.66
2023-04-30T22:11:00.305Z,13.62
2023-04-30T22:13:29.988Z,13.55
2023-04-30T22:15:56.703Z,13.47
2023-04-30T22:18:24.314Z,13.53
2023-04-30T22:20:51.950Z,13.58
2023-04-30T22:23:21.069Z,13.63
2023-04-30T22:25:47.513Z,13.58
2023-04-30T22:28:16.741Z,13.55
2023-04-30T22:30:43.436Z,13.49
2023-04-30T22:33:10.023Z,13.43
2023-04-30T22:35:38.393Z,13.56
2023-04-30T22:38:05.359Z,13.62
2023-04-30T22:40:38.275Z,13.59
2023-04-30T22:43:05.765Z,13.56
2023-04-30T22:45:32.697Z,13.53
2023-04-30T22:48:01.580Z,13.58
2023-04-30T22:50:28.435Z,13.62
2023-04-30T22:52:56.281Z,13.57
2023-04-30T22:55:22.940Z,13.48
2023-04-30T22:57:49.388Z,13.39
2023-04-30T23:00:16.295Z,13.40
2023-04-30T23:02:43.586Z,13.47
2023-04-30T23:05:10.042Z,13.45
2023-04-30T23:07:36.362Z,13.50
2023-04-30T23:10:05.019Z,13.53
2023-04-30T23:12:31.445Z,13.47
2023-04-30T23:14:57.957Z,13.43
2023-04-30T23:17:24.370Z,13.43
2023-04-30T23:19:50.751Z,13.46
2023-04-30T23:22:17.424Z,13.53
2023-04-30T23:24:43.738Z,13.55
2023-04-30T23:27:10.200Z,13.60
2023-04-30T23:29:36.658Z,13.57
2023-04-30T23:32:04.171Z,13.51
2023-04-30T23:34:30.600Z,13.44
2023-04-30T23:36:57.064Z,13.50
2023-04-30T23:39:24.393Z,13.49
2023-04-30T23:41:52.186Z,13.53
2023-04-30T23:44:18.701Z,13.46
2023-04-30T23:46:45.226Z,13.45
2023-04-30T23:49:11.634Z,13.42
2023-04-30T23:51:37.995Z,13.30
2023-04-30T23:54:06.102Z,13.35
2023-04-30T23:56:33.906Z,13.40
2023-04-30T23:59:00.400Z,13.40
